createdAt,value
2018-08-01T00:02:25.255Z,19.53
2018-08-01T00:04:53.991Z,19.54
2018-08-01T00:07:22.706Z,19.62
2018-08-01T00:09:52.129Z,19.63
2018-08-01T00:12:21.030Z,19.53
2018-08-01T00:14:50.114Z,19.51
2018-08-01T00:17:18.838Z,19.55
2018-08-01T00:19:47.558Z,19.71
2018-08-01T00:22:16.306Z,19.58
2018-08-01T00:24:45.042Z,19.55
2018-08-01T00:27:13.720Z,19.65
2018-08-01T00:29:42.391Z,19.69
2018-08-01T00:32:11.070Z,19.64
2018-08-01T00:34:39.805Z,18.74
2018-08-01T00:37:08.490Z,19.80
2018-08-01T00:39:37.177Z,19.87
2018-08-01T00:42:05.891Z,19.89
2018-08-01T00:44:34.882Z,19.72
2018-08-01T00:47:03.578Z,19.57
2018-08-01T00:49:32.260Z,19.72
2018-08-01T00:52:00.939Z,19.77
2018-08-01T00:54:30.606Z,19.85
2018-08-01T00:56:59.311Z,19.84
2018-08-01T00:59:27.962Z,19.78
2018-08-01T01:01:56.724Z,19.80
2018-08-01T01:04:25.406Z,19.76
2018-08-01T01:06:54.148Z,19.85
2018-08-01T01:09:22.904Z,19.83
2018-08-01T01:11:51.631Z,19.80
2018-08-01T01:14:20.319Z,19.76
2018-08-01T01:16:49.063Z,19.77
2018-08-01T01:19:17.846Z,19.76
2018-08-01T01:21:46.539Z,19.76
2018-08-01T01:24:15.227Z,19.73
2018-08-01T01:26:43.891Z,19.70
2018-08-01T01:29:12.842Z,19.77
2018-08-01T01:31:42.460Z,19.77
2018-08-01T01:34:11.215Z,19.64
2018-08-01T01:36:39.942Z,19.63
2018-08-01T01:39:10.428Z,19.53
2018-08-01T01:41:39.176Z,19.30
2018-08-01T01:44:08.017Z,19.25
2018-08-01T01:46:37.064Z,19.44
2018-08-01T01:49:05.848Z,19.39
2018-08-01T01:51:34.585Z,19.21
2018-08-01T01:54:03.317Z,19.30
2018-08-01T01:56:32.031Z,19.45
2018-08-01T01:59:00.739Z,19.53
2018-08-01T02:01:29.431Z,19.59
2018-08-01T02:03:58.117Z,19.59
2018-08-01T02:06:26.795Z,19.37
2018-08-01T02:08:55.474Z,19.25
2018-08-01T02:11:24.197Z,19.40
2018-08-01T02:13:52.916Z,19.39
2018-08-01T02:16:21.625Z,19.42
2018-08-01T02:18:50.294Z,19.51
2018-08-01T02:21:18.996Z,19.52
2018-08-01T02:23:47.684Z,19.43
2018-08-01T02:26:16.440Z,19.40
2018-08-01T02:28:45.485Z,19.40
2018-08-01T02:31:14.160Z,19.37
2018-08-01T02:33:42.825Z,19.34
2018-08-01T02:36:11.563Z,19.27
2018-08-01T02:38:40.138Z,19.38
2018-08-01T02:41:08.838Z,19.41
2018-08-01T02:43:37.512Z,19.40
2018-08-01T02:46:06.262Z,19.26
2018-08-01T02:48:34.935Z,19.28
2018-08-01T02:51:03.619Z,19.38
2018-08-01T02:53:32.298Z,19.47
2018-08-01T02:56:01.016Z,19.56
2018-08-01T02:58:29.694Z,19.68
2018-08-01T03:00:58.440Z,19.60
2018-08-01T03:03:27.462Z,19.46
2018-08-01T03:05:56.159Z,19.47
2018-08-01T03:08:24.868Z,19.42
2018-08-01T03:10:53.551Z,19.47
2018-08-01T03:13:22.251Z,19.51
2018-08-01T03:15:51.191Z,19.51
2018-08-01T03:18:19.885Z,19.45
2018-08-01T03:20:49.349Z,19.50
2018-08-01T03:23:18.042Z,19.41
2018-08-01T03:25:46.804Z,19.44
2018-08-01T03:28:15.495Z,19.45
2018-08-01T03:30:44.477Z,19.43
2018-08-01T03:33:13.174Z,19.40
2018-08-01T03:35:42.130Z,19.32
2018-08-01T03:38:10.823Z,19.42
2018-08-01T03:40:39.542Z,19.47
2018-08-01T03:43:08.379Z,19.41
2018-08-01T03:45:37.107Z,19.40
2018-08-01T03:48:05.782Z,19.43
2018-08-01T03:50:34.480Z,19.53
2018-08-01T03:53:03.561Z,19.52
2018-08-01T03:55:32.209Z,19.40
2018-08-01T03:58:00.913Z,19.41
2018-08-01T04:00:29.643Z,19.57
2018-08-01T04:02:58.332Z,19.66
2018-08-01T04:05:26.962Z,19.37
2018-08-01T04:07:55.612Z,19.19
2018-08-01T04:10:24.301Z,19.13
2018-08-01T04:12:52.967Z,19.11
2018-08-01T04:15:21.682Z,19.23
2018-08-01T04:17:50.347Z,19.20
2018-08-01T04:20:19.011Z,19.22
2018-08-01T04:22:47.649Z,19.19
2018-08-01T04:25:16.325Z,19.12
2018-08-01T04:27:44.999Z,19.15
2018-08-01T04:30:13.780Z,19.22
2018-08-01T04:32:42.509Z,19.24
2018-08-01T04:35:11.191Z,19.40
2018-08-01T04:37:39.874Z,19.54
2018-08-01T04:40:08.523Z,19.54
2018-08-01T04:42:37.226Z,19.49
2018-08-01T04:45:05.962Z,19.69
2018-08-01T04:47:34.666Z,19.94
2018-08-01T04:50:03.351Z,20.07
2018-08-01T04:52:32.018Z,20.40
2018-08-01T04:55:00.751Z,20.44
2018-08-01T04:57:29.372Z,20.65
2018-08-01T04:59:57.994Z,21.13
2018-08-01T05:02:26.695Z,21.50
2018-08-01T05:04:55.602Z,21.83
2018-08-01T05:07:24.279Z,22.16
2018-08-01T05:09:52.911Z,22.00
2018-08-01T05:12:21.597Z,22.24
2018-08-01T05:14:56.379Z,22.53
2018-08-01T05:17:25.068Z,22.14
2018-08-01T05:19:53.771Z,21.88
2018-08-01T05:22:22.482Z,21.87
2018-08-01T05:24:51.210Z,22.59
2018-08-01T05:27:19.963Z,23.62
2018-08-01T05:29:48.641Z,24.23
2018-08-01T05:32:17.384Z,24.57
2018-08-01T05:34:46.084Z,24.84
2018-08-01T05:37:14.777Z,25.32
2018-08-01T05:39:43.477Z,25.70
2018-08-01T05:42:12.209Z,26.00
2018-08-01T05:44:40.915Z,26.12
2018-08-01T05:47:09.645Z,25.94
2018-08-01T05:49:38.438Z,26.19
2018-08-01T05:52:07.118Z,26.53
2018-08-01T05:54:35.802Z,26.38
2018-08-01T05:57:04.517Z,26.77
2018-08-01T05:59:33.197Z,26.52
2018-08-01T06:02:01.886Z,25.98
2018-08-01T06:04:30.561Z,25.55
2018-08-01T06:06:59.597Z,24.94
2018-08-01T06:09:28.299Z,25.86
2018-08-01T06:11:56.971Z,26.74
2018-08-01T06:14:25.664Z,26.08
2018-08-01T06:16:54.317Z,25.51
2018-08-01T06:19:24.006Z,25.04
2018-08-01T06:21:52.968Z,24.72
2018-08-01T06:24:21.650Z,24.31
2018-08-01T06:26:50.516Z,24.35
2018-08-01T06:29:19.222Z,24.21
2018-08-01T06:31:47.952Z,24.20
2018-08-01T06:34:16.683Z,24.25
2018-08-01T06:36:45.339Z,24.13
2018-08-01T06:39:14.063Z,24.31
2018-08-01T06:41:43.607Z,24.41
2018-08-01T06:44:13.175Z,24.51
2018-08-01T06:46:42.754Z,24.73
2018-08-01T06:49:11.462Z,24.89
2018-08-01T06:51:40.147Z,25.13
2018-08-01T06:54:08.934Z,25.20
2018-08-01T06:56:37.622Z,25.15
2018-08-01T06:59:06.409Z,24.99
2018-08-01T07:01:35.118Z,24.86
2018-08-01T07:04:03.998Z,24.77
2018-08-01T07:06:32.772Z,24.62
2018-08-01T07:09:01.450Z,25.39
2018-08-01T07:11:30.188Z,26.23
2018-08-01T07:13:58.846Z,26.55
2018-08-01T07:16:27.584Z,26.91
2018-08-01T07:18:56.314Z,27.21
2018-08-01T07:21:24.955Z,28.19
2018-08-01T07:23:53.660Z,28.25
2018-08-01T07:26:22.374Z,28.37
2018-08-01T07:28:51.070Z,28.16
2018-08-01T07:31:19.711Z,28.24
2018-08-01T07:33:48.415Z,28.55
2018-08-01T07:36:17.092Z,28.45
2018-08-01T07:38:45.808Z,28.22
2018-08-01T07:41:14.499Z,28.95
2018-08-01T07:43:43.542Z,29.68
2018-08-01T07:46:12.598Z,29.60
2018-08-01T07:48:41.572Z,29.91
2018-08-01T07:51:10.254Z,29.98
2018-08-01T07:53:38.962Z,30.20
2018-08-01T07:56:07.681Z,30.21
2018-08-01T07:58:36.360Z,31.25
2018-08-01T08:01:05.280Z,31.36
2018-08-01T08:03:34.227Z,30.84
2018-08-01T08:06:02.899Z,30.37
2018-08-01T08:08:31.890Z,30.42
2018-08-01T08:11:00.932Z,30.12
2018-08-01T08:13:29.651Z,30.59
2018-08-01T08:15:58.358Z,30.36
2018-08-01T08:18:27.068Z,29.68
2018-08-01T08:20:55.726Z,29.60
2018-08-01T08:23:24.462Z,30.49
2018-08-01T08:25:53.243Z,30.94
2018-08-01T08:28:21.958Z,31.23
2018-08-01T08:30:50.677Z,30.77
2018-08-01T08:33:19.372Z,29.89
2018-08-01T08:35:48.063Z,28.74
2018-08-01T08:38:17.023Z,29.36
2018-08-01T08:40:45.728Z,29.79
2018-08-01T08:43:14.505Z,30.27
2018-08-01T08:45:43.202Z,30.41
2018-08-01T08:48:11.946Z,29.37
2018-08-01T08:50:40.840Z,29.14
2018-08-01T08:53:09.509Z,29.53
2018-08-01T08:55:38.241Z,29.45
2018-08-01T08:58:06.964Z,28.83
2018-08-01T09:00:35.728Z,27.79
2018-08-01T09:03:04.388Z,28.77
2018-08-01T09:05:33.053Z,28.99
2018-08-01T09:08:01.753Z,28.17
2018-08-01T09:10:30.397Z,27.72
2018-08-01T09:12:59.570Z,28.02
2018-08-01T09:15:28.280Z,29.74
2018-08-01T09:17:57.268Z,30.59
2018-08-01T09:20:25.950Z,30.83
2018-08-01T09:22:54.623Z,31.48
2018-08-01T09:25:23.396Z,31.79
2018-08-01T09:27:52.144Z,31.83
2018-08-01T09:30:20.848Z,31.70
2018-08-01T09:32:49.515Z,32.27
2018-08-01T09:35:18.183Z,32.18
2018-08-01T09:37:47.179Z,31.93
2018-08-01T09:40:15.865Z,31.78
2018-08-01T09:42:45.187Z,32.00
2018-08-01T09:45:13.873Z,31.66
2018-08-01T09:47:42.570Z,31.55
2018-08-01T09:50:12.232Z,32.14
2018-08-01T09:52:41.511Z,31.07
2018-08-01T09:55:11.606Z,30.21
2018-08-01T09:57:39.726Z,29.26
2018-08-01T10:00:09.680Z,29.66
2018-08-01T10:03:14.050Z,31.12
2018-08-01T10:05:42.754Z,31.78
2018-08-01T10:08:11.438Z,30.58
2018-08-01T10:10:40.152Z,32.05
2018-08-01T10:13:09.204Z,33.21
2018-08-01T10:15:37.894Z,33.31
2018-08-01T10:18:06.658Z,32.96
2018-08-01T10:20:35.385Z,33.76
2018-08-01T10:23:04.054Z,34.10
2018-08-01T10:25:32.771Z,33.84
2018-08-01T10:28:01.447Z,33.85
2018-08-01T10:30:30.142Z,32.00
2018-08-01T10:32:59.383Z,30.70
2018-08-01T10:35:28.079Z,29.70
2018-08-01T10:37:56.779Z,29.57
2018-08-01T10:40:25.446Z,29.01
2018-08-01T10:42:54.096Z,30.79
2018-08-01T10:45:22.785Z,32.10
2018-08-01T10:47:51.424Z,32.69
2018-08-01T10:50:20.117Z,32.86
2018-08-01T10:52:48.768Z,30.77
2018-08-01T10:55:18.424Z,29.67
2018-08-01T10:57:47.415Z,29.91
2018-08-01T11:00:16.127Z,31.93
2018-08-01T11:02:45.744Z,33.09
2018-08-01T11:05:14.475Z,32.33
2018-08-01T11:07:43.167Z,32.75
2018-08-01T11:10:11.876Z,32.64
2018-08-01T11:12:40.818Z,32.91
2018-08-01T11:15:09.596Z,33.11
2018-08-01T11:17:38.335Z,33.78
2018-08-01T11:20:07.103Z,32.01
2018-08-01T11:22:35.800Z,30.95
2018-08-01T11:25:04.651Z,30.36
2018-08-01T11:27:33.418Z,31.63
2018-08-01T11:30:02.095Z,32.30
2018-08-01T11:32:30.789Z,33.02
2018-08-01T11:34:59.506Z,32.56
2018-08-01T11:37:28.152Z,31.11
2018-08-01T11:39:56.850Z,30.07
2018-08-01T11:42:25.821Z,29.52
2018-08-01T11:44:54.502Z,29.12
2018-08-01T11:47:23.189Z,28.67
2018-08-01T11:49:51.869Z,28.90
2018-08-01T11:52:20.580Z,29.65
2018-08-01T11:54:49.276Z,30.17
2018-08-01T11:59:51.744Z,28.81
2018-08-01T12:02:20.405Z,30.36
2018-08-01T12:04:49.064Z,29.90
2018-08-01T12:07:17.797Z,31.92
2018-08-01T12:09:46.449Z,32.36
2018-08-01T12:12:15.143Z,31.97
2018-08-01T12:14:43.846Z,31.65
2018-08-01T12:17:12.799Z,30.55
2018-08-01T12:19:41.477Z,30.47
2018-08-01T12:22:10.119Z,31.41
2018-08-01T12:24:38.769Z,32.38
2018-08-01T12:27:07.469Z,32.81
2018-08-01T12:29:36.177Z,33.20
2018-08-01T12:32:04.920Z,32.15
2018-08-01T12:34:33.579Z,31.83
2018-08-01T12:37:02.286Z,31.16
2018-08-01T12:39:30.977Z,30.85
2018-08-01T12:42:00.118Z,31.52
2018-08-01T12:44:28.746Z,30.96
2018-08-01T12:46:57.440Z,30.39
2018-08-01T12:49:26.112Z,29.97
2018-08-01T12:51:54.852Z,30.06
2018-08-01T12:54:23.540Z,30.45
2018-08-01T12:56:52.265Z,30.20
2018-08-01T12:59:20.954Z,29.90
2018-08-01T13:01:49.643Z,29.73
2018-08-01T13:04:18.420Z,29.33
2018-08-01T13:06:47.747Z,28.97
2018-08-01T13:09:16.502Z,28.84
2018-08-01T13:11:45.166Z,28.88
2018-08-01T13:14:13.814Z,28.79
2018-08-01T13:16:42.508Z,28.81
2018-08-01T13:19:11.203Z,28.93
2018-08-01T13:21:39.882Z,28.78
2018-08-01T13:24:08.596Z,28.65
2018-08-01T13:26:37.303Z,28.38
2018-08-01T13:29:05.962Z,28.63
2018-08-01T13:31:34.639Z,29.05
2018-08-01T13:34:03.291Z,29.54
2018-08-01T13:36:32.315Z,29.93
2018-08-01T13:39:07.441Z,30.36
2018-08-01T13:41:36.306Z,30.75
2018-08-01T13:44:05.070Z,31.28
2018-08-01T13:46:33.684Z,31.35
2018-08-01T13:49:02.601Z,30.41
2018-08-01T13:51:31.386Z,30.13
2018-08-01T13:54:00.008Z,30.11
2018-08-01T13:56:28.659Z,29.91
2018-08-01T13:58:57.403Z,29.48
2018-08-01T14:01:26.038Z,29.01
2018-08-01T14:03:54.743Z,28.79
2018-08-01T14:06:23.435Z,28.66
2018-08-01T14:08:52.144Z,28.72
2018-08-01T14:11:20.863Z,28.83
2018-08-01T14:13:49.523Z,28.82
2018-08-01T14:16:18.214Z,28.67
2018-08-01T14:18:46.904Z,28.62
2018-08-01T14:21:15.582Z,28.58
2018-08-01T14:23:44.320Z,28.54
2018-08-01T14:26:12.982Z,28.40
2018-08-01T14:28:41.618Z,28.11
2018-08-01T14:31:10.303Z,27.97
2018-08-01T14:33:38.973Z,27.90
2018-08-01T14:36:07.675Z,27.58
2018-08-01T14:38:36.335Z,27.13
2018-08-01T14:41:05.482Z,26.64
2018-08-01T14:43:34.143Z,26.54
2018-08-01T14:46:02.905Z,26.42
2018-08-01T14:48:31.597Z,26.51
2018-08-01T14:51:00.327Z,26.55
2018-08-01T14:53:28.975Z,26.63
2018-08-01T14:55:57.768Z,26.63
2018-08-01T14:58:26.432Z,26.58
2018-08-01T15:00:55.096Z,26.52
2018-08-01T15:03:23.914Z,26.49
2018-08-01T15:05:52.538Z,26.35
2018-08-01T15:08:21.202Z,26.20
2018-08-01T15:10:51.576Z,25.82
2018-08-01T15:13:20.979Z,25.70
2018-08-01T15:15:49.622Z,25.56
2018-08-01T15:18:18.415Z,25.46
2018-08-01T15:20:47.460Z,25.36
2018-08-01T15:23:16.176Z,25.23
2018-08-01T15:25:45.040Z,25.17
2018-08-01T15:28:13.575Z,25.23
2018-08-01T15:30:42.244Z,25.42
2018-08-01T15:33:10.910Z,25.60
2018-08-01T15:35:39.574Z,25.69
2018-08-01T15:38:08.227Z,25.83
2018-08-01T15:40:36.904Z,25.93
2018-08-01T15:43:05.655Z,26.06
2018-08-01T15:45:34.366Z,26.15
2018-08-01T15:48:03.062Z,26.23
2018-08-01T15:50:31.832Z,26.31
2018-08-01T15:53:00.518Z,26.28
2018-08-01T15:55:29.198Z,26.34
2018-08-01T15:57:57.875Z,26.42
2018-08-01T16:00:26.557Z,26.39
2018-08-01T16:02:56.347Z,26.40
2018-08-01T16:05:25.094Z,26.47
2018-08-01T16:07:53.763Z,26.44
2018-08-01T16:10:22.463Z,26.38
2018-08-01T16:12:51.123Z,26.39
2018-08-01T16:15:19.822Z,26.27
2018-08-01T16:17:48.514Z,26.26
2018-08-01T16:20:17.207Z,26.18
2018-08-01T16:22:45.954Z,26.15
2018-08-01T16:25:14.607Z,26.13
2018-08-01T16:27:43.273Z,26.13
2018-08-01T16:30:11.916Z,26.17
2018-08-01T16:32:40.596Z,26.15
2018-08-01T16:35:09.574Z,26.15
2018-08-01T16:37:38.315Z,26.17
2018-08-01T16:40:06.994Z,26.12
2018-08-01T16:42:35.682Z,26.13
2018-08-01T16:45:14.778Z,26.09
2018-08-01T16:47:43.456Z,25.97
2018-08-01T16:50:12.150Z,25.94
2018-08-01T16:52:40.828Z,25.88
2018-08-01T16:55:09.519Z,25.83
2018-08-01T16:57:38.272Z,25.85
2018-08-01T17:00:07.082Z,25.89
2018-08-01T17:02:35.718Z,25.91
2018-08-01T17:05:04.420Z,25.89
2018-08-01T17:07:33.076Z,25.80
2018-08-01T17:10:01.805Z,25.75
2018-08-01T17:12:30.475Z,25.78
2018-08-01T17:14:59.138Z,25.80
2018-08-01T17:17:28.014Z,25.74
2018-08-01T17:20:11.174Z,25.74
2018-08-01T17:22:39.866Z,25.78
2018-08-01T17:25:08.522Z,25.72
2018-08-01T17:27:37.208Z,25.64
2018-08-01T17:30:07.524Z,25.60
2018-08-01T17:32:36.474Z,25.53
2018-08-01T17:35:05.523Z,25.42
2018-08-01T17:37:34.183Z,25.40
2018-08-01T17:40:03.107Z,25.32
2018-08-01T17:42:31.797Z,25.29
2018-08-01T17:45:00.473Z,25.23
2018-08-01T17:47:29.152Z,25.20
2018-08-01T17:49:57.771Z,25.15
2018-08-01T17:52:26.444Z,25.13
2018-08-01T17:54:55.155Z,25.08
2018-08-01T17:57:23.862Z,24.98
2018-08-01T17:59:52.533Z,24.95
2018-08-01T18:02:21.205Z,24.95
2018-08-01T18:04:49.835Z,24.95
2018-08-01T18:07:18.633Z,24.96
2018-08-01T18:09:47.353Z,24.92
2018-08-01T18:12:16.087Z,24.83
2018-08-01T18:14:44.726Z,24.60
2018-08-01T18:17:13.402Z,24.21
2018-08-01T18:19:42.071Z,24.01
2018-08-01T18:22:10.827Z,23.92
2018-08-01T18:24:39.505Z,23.83
2018-08-01T18:27:08.153Z,23.66
2018-08-01T18:29:36.862Z,23.47
2018-08-01T18:32:05.534Z,23.39
2018-08-01T18:34:34.425Z,23.24
2018-08-01T18:37:03.575Z,23.13
2018-08-01T18:39:32.245Z,23.06
2018-08-01T18:42:00.918Z,23.05
2018-08-01T18:44:29.635Z,23.14
2018-08-01T18:46:58.244Z,23.13
2018-08-01T18:49:26.923Z,23.15
2018-08-01T18:51:55.857Z,23.19
2018-08-01T18:54:24.511Z,23.19
2018-08-01T18:56:53.166Z,23.24
2018-08-01T18:59:21.873Z,23.28
2018-08-01T19:01:50.557Z,23.31
2018-08-01T19:04:19.201Z,23.30
2018-08-01T19:06:47.826Z,23.24
2018-08-01T19:09:17.376Z,23.19
2018-08-01T19:11:46.038Z,23.13
2018-08-01T19:14:14.715Z,23.18
2018-08-01T19:16:43.418Z,23.48
2018-08-01T19:19:12.191Z,23.45
2018-08-01T19:21:40.856Z,23.32
2018-08-01T19:24:09.535Z,23.28
2018-08-01T19:26:38.442Z,23.21
2018-08-01T19:29:07.026Z,23.12
2018-08-01T19:31:35.652Z,23.22
2018-08-01T19:34:04.350Z,23.11
2018-08-01T19:36:33.014Z,22.94
2018-08-01T19:39:02.000Z,22.84
2018-08-01T19:41:30.741Z,22.74
2018-08-01T19:43:59.391Z,22.77
2018-08-01T19:46:28.088Z,22.79
2018-08-01T19:48:56.772Z,22.74
2018-08-01T19:51:25.998Z,22.81
2018-08-01T19:53:54.759Z,22.88
2018-08-01T19:56:23.154Z,22.93
2018-08-01T19:58:51.500Z,22.98
2018-08-01T20:01:20.554Z,22.96
2018-08-01T20:03:49.202Z,22.98
2018-08-01T20:06:18.107Z,22.98
2018-08-01T20:08:46.813Z,22.99
2018-08-01T20:11:15.648Z,22.88
2018-08-01T20:13:44.618Z,22.89
2018-08-01T20:16:13.227Z,22.85
2018-08-01T20:18:42.115Z,22.70
2018-08-01T20:21:10.791Z,22.43
2018-08-01T20:23:39.790Z,22.56
2018-08-01T20:26:08.479Z,22.46
2018-08-01T20:28:37.905Z,22.49
2018-08-01T20:31:06.710Z,22.65
2018-08-01T20:33:35.731Z,22.61
2018-08-01T20:36:04.423Z,22.52
2018-08-01T20:38:33.150Z,22.37
2018-08-01T20:41:01.872Z,22.23
2018-08-01T20:43:30.598Z,22.21
2018-08-01T20:45:59.221Z,22.35
2018-08-01T20:48:28.270Z,22.45
2018-08-01T20:50:56.959Z,22.47
2018-08-01T20:53:25.761Z,22.44
2018-08-01T20:55:54.397Z,22.45
2018-08-01T20:58:23.066Z,21.82
2018-08-01T21:00:51.761Z,22.44
2018-08-01T21:03:20.717Z,22.45
2018-08-01T21:05:49.656Z,22.39
2018-08-01T21:08:18.322Z,22.41
2018-08-01T21:10:46.980Z,22.32
2018-08-01T21:13:15.624Z,22.23
2018-08-01T21:15:44.290Z,22.17
2018-08-01T21:18:12.977Z,22.20
2018-08-01T21:20:41.687Z,22.12
2018-08-01T21:23:10.387Z,22.11
2018-08-01T21:25:39.047Z,22.04
2018-08-01T21:28:07.775Z,22.16
2018-08-01T21:30:36.410Z,22.19
2018-08-01T21:33:05.358Z,22.11
2018-08-01T21:35:33.998Z,22.10
2018-08-01T21:38:02.639Z,22.09
2018-08-01T21:40:31.320Z,22.00
2018-08-01T21:43:00.507Z,21.98
2018-08-01T21:45:29.452Z,21.96
2018-08-01T21:47:58.272Z,21.92
2018-08-01T21:50:26.937Z,21.93
2018-08-01T21:52:55.907Z,21.90
2018-08-01T21:55:24.626Z,21.91
2018-08-01T21:57:53.257Z,22.01
2018-08-01T22:00:21.961Z,21.89
2018-08-01T22:02:50.806Z,21.89
2018-08-01T22:05:19.475Z,21.76
2018-08-01T22:07:48.129Z,21.82
2018-08-01T22:10:17.143Z,21.89
2018-08-01T22:12:45.848Z,21.82
2018-08-01T22:15:14.520Z,21.80
2018-08-01T22:17:43.165Z,21.75
2018-08-01T22:20:12.133Z,21.75
2018-08-01T22:22:41.907Z,21.69
2018-08-01T22:25:10.622Z,21.75
2018-08-01T22:27:39.329Z,21.73
2018-08-01T22:30:08.080Z,21.55
2018-08-01T22:32:36.952Z,21.68
2018-08-01T22:35:05.739Z,21.73
2018-08-01T22:37:34.398Z,21.84
2018-08-01T22:40:03.049Z,21.76
2018-08-01T22:42:31.871Z,21.51
2018-08-01T22:45:00.628Z,21.55
2018-08-01T22:47:29.567Z,21.66
2018-08-01T22:49:58.234Z,21.65
2018-08-01T22:52:27.012Z,21.67
2018-08-01T22:54:55.680Z,21.76
2018-08-01T22:57:24.426Z,21.61
2018-08-01T22:59:53.063Z,21.84
2018-08-01T23:02:21.738Z,22.01
2018-08-01T23:04:50.375Z,21.93
2018-08-01T23:07:19.130Z,21.99
2018-08-01T23:09:47.790Z,22.11
2018-08-01T23:12:16.528Z,21.97
2018-08-01T23:14:45.170Z,21.58
2018-08-01T23:17:13.876Z,21.62
2018-08-01T23:19:42.531Z,21.96
2018-08-01T23:22:11.219Z,22.03
2018-08-01T23:24:39.979Z,21.98
2018-08-01T23:27:08.726Z,21.95
2018-08-01T23:29:37.378Z,22.05
2018-08-01T23:32:06.058Z,22.03
2018-08-01T23:34:35.202Z,21.85
2018-08-01T23:37:03.910Z,21.64
2018-08-01T23:39:32.591Z,21.46
2018-08-01T23:42:01.278Z,21.53
2018-08-01T23:44:30.231Z,21.51
2018-08-01T23:46:58.952Z,21.42
2018-08-01T23:49:27.631Z,21.42
2018-08-01T23:51:56.286Z,21.24
2018-08-01T23:54:25.295Z,21.21
2018-08-01T23:56:54.008Z,21.15
2018-08-01T23:59:22.682Z,21.31
